sensor_id;sensor_type;location;lat;lon;timestamp;pressure;altitude;pressure_sealevel;temperature;humidity
15314;BME280;7757;52.626;4.746;2023-05-11T00:02:13;101332.41;;;19.37;60.58
15314;BME280;7757;52.626;4.746;2023-05-11T00:04:59;101340.56;;;19.37;61.18
15314;BME280;7757;52.626;4.746;2023-05-11T00:07:47;101334.53;;;19.35;60.70
15314;BME280;7757;52.626;4.746;2023-05-11T00:10:49;101337.03;;;19.36;60.92
15314;BME280;7757;52.626;4.746;2023-05-11T00:13:35;101333.72;;;19.34;60.91
15314;BME280;7757;52.626;4.746;2023-05-11T00:16:22;101338.31;;;19.34;60.92
15314;BME280;7757;52.626;4.746;2023-05-11T00:19:14;101332.28;;;19.32;60.81
15314;BME280;7757;52.626;4.746;2023-05-11T00:21:59;101324.88;;;19.27;60.87
15314;BME280;7757;52.626;4.746;2023-05-11T00:24:48;101335.00;;;19.32;61.04
15314;BME280;7757;52.626;4.746;2023-05-11T00:27:43;101333.13;;;19.32;61.01
15314;BME280;7757;52.626;4.746;2023-05-11T00:30:40;101336.06;;;19.31;60.78
15314;BME280;7757;52.626;4.746;2023-05-11T00:33:25;101331.91;;;19.28;61.00
15314;BME280;7757;52.626;4.746;2023-05-11T00:36:20;101328.38;;;19.28;61.09
15314;BME280;7757;52.626;4.746;2023-05-11T00:39:05;101330.28;;;19.27;60.62
15314;BME280;7757;52.626;4.746;2023-05-11T00:41:53;101331.34;;;19.26;60.84
15314;BME280;7757;52.626;4.746;2023-05-11T00:44:47;101329.47;;;19.27;60.95
15314;BME280;7757;52.626;4.746;2023-05-11T00:47:32;101325.31;;;19.24;60.82
15314;BME280;7757;52.626;4.746;2023-05-11T00:50:18;101342.44;;;19.25;61.03
15314;BME280;7757;52.626;4.746;2023-05-11T00:53:03;101336.19;;;19.24;60.93
15314;BME280;7757;52.626;4.746;2023-05-11T00:55:52;101339.47;;;19.26;60.93
15314;BME280;7757;52.626;4.746;2023-05-11T00:58:50;101339.47;;;19.26;60.89
15314;BME280;7757;52.626;4.746;2023-05-11T01:01:49;101332.38;;;19.25;61.18
15314;BME280;7757;52.626;4.746;2023-05-11T01:04:34;101324.50;;;19.24;61.02
15314;BME280;7757;52.626;4.746;2023-05-11T01:07:26;101328.03;;;19.24;61.04
15314;BME280;7757;52.626;4.746;2023-05-11T01:10:18;101330.13;;;19.22;61.03
15314;BME280;7757;52.626;4.746;2023-05-11T01:13:16;101322.00;;;19.22;61.02
15314;BME280;7757;52.626;4.746;2023-05-11T01:16:07;101312.44;;;19.20;60.72
15314;BME280;7757;52.626;4.746;2023-05-11T01:18:59;101316.56;;;19.22;61.08
15314;BME280;7757;52.626;4.746;2023-05-11T01:21:51;101331.22;;;19.21;61.24
15314;BME280;7757;52.626;4.746;2023-05-11T01:24:50;101321.41;;;19.20;60.88
15314;BME280;7757;52.626;4.746;2023-05-11T01:28:11;101322.06;;;19.04;61.30
15314;BME280;7757;52.626;4.746;2023-05-11T01:31:03;101318.19;;;19.12;61.25
15314;BME280;7757;52.626;4.746;2023-05-11T01:33:57;101306.31;;;19.13;60.99
15314;BME280;7757;52.626;4.746;2023-05-11T01:36:51;101307.94;;;19.14;61.19
15314;BME280;7757;52.626;4.746;2023-05-11T01:39:39;101303.59;;;19.13;61.07
15314;BME280;7757;52.626;4.746;2023-05-11T01:42:44;101324.63;;;18.99;61.51
15314;BME280;7757;52.626;4.746;2023-05-11T01:45:33;101320.31;;;19.10;61.32
15314;BME280;7757;52.626;4.746;2023-05-11T01:48:22;101327.75;;;19.14;61.45
15314;BME280;7757;52.626;4.746;2023-05-11T01:51:10;101331.50;;;19.13;61.06
15314;BME280;7757;52.626;4.746;2023-05-11T01:53:57;101333.88;;;19.10;61.33
15314;BME280;7757;52.626;4.746;2023-05-11T01:56:50;101331.16;;;19.10;61.29
15314;BME280;7757;52.626;4.746;2023-05-11T01:59:38;101335.31;;;19.12;61.20
15314;BME280;7757;52.626;4.746;2023-05-11T02:02:25;101337.38;;;19.10;61.03
15314;BME280;7757;52.626;4.746;2023-05-11T02:05:14;101336.34;;;19.11;61.17
15314;BME280;7757;52.626;4.746;2023-05-11T02:08:00;101336.34;;;19.11;61.59
15314;BME280;7757;52.626;4.746;2023-05-11T02:10:47;101341.19;;;19.09;61.21
15314;BME280;7757;52.626;4.746;2023-05-11T02:13:38;101355.56;;;19.10;61.38
15314;BME280;7757;52.626;4.746;2023-05-11T02:16:25;101350.16;;;19.10;61.04
15314;BME280;7757;52.626;4.746;2023-05-11T02:19:12;101341.25;;;19.03;60.99
15314;BME280;7757;52.626;4.746;2023-05-11T02:22:00;101342.22;;;19.08;60.96
15314;BME280;7757;52.626;4.746;2023-05-11T02:24:48;101328.75;;;19.02;61.19
15314;BME280;7757;52.626;4.746;2023-05-11T02:27:41;101342.69;;;19.05;61.06
15314;BME280;7757;52.626;4.746;2023-05-11T02:30:27;101346.22;;;19.06;60.83
15314;BME280;7757;52.626;4.746;2023-05-11T02:33:20;101346.22;;;19.06;60.97
15314;BME280;7757;52.626;4.746;2023-05-11T02:36:08;101343.75;;;19.04;61.15
15314;BME280;7757;52.626;4.746;2023-05-11T02:39:00;101347.28;;;19.05;61.16
15314;BME280;7757;52.626;4.746;2023-05-11T02:41:55;101339.38;;;19.03;61.20
15314;BME280;7757;52.626;4.746;2023-05-11T02:44:52;101335.63;;;19.04;61.34
15314;BME280;7757;52.626;4.746;2023-05-11T02:47:44;101329.44;;;18.97;60.95
15314;BME280;7757;52.626;4.746;2023-05-11T02:50:36;101329.66;;;18.95;61.80
15314;BME280;7757;52.626;4.746;2023-05-11T02:53:26;101338.19;;;18.99;61.36
15314;BME280;7757;52.626;4.746;2023-05-11T02:56:13;101331.34;;;18.97;61.29
15314;BME280;7757;52.626;4.746;2023-05-11T02:58:59;101329.44;;;18.97;61.14
15314;BME280;7757;52.626;4.746;2023-05-11T03:01:45;101337.59;;;18.97;61.05
15314;BME280;7757;52.626;4.746;2023-05-11T03:04:40;101337.59;;;18.97;61.33
15314;BME280;7757;52.626;4.746;2023-05-11T03:07:25;101336.63;;;18.91;61.41
15314;BME280;7757;52.626;4.746;2023-05-11T03:10:11;101342.19;;;18.97;61.10
15314;BME280;7757;52.626;4.746;2023-05-11T03:13:00;101345.94;;;18.95;61.06
15314;BME280;7757;52.626;4.746;2023-05-11T03:15:50;101338.88;;;18.94;61.10
15314;BME280;7757;52.626;4.746;2023-05-11T03:18:42;101341.81;;;18.93;61.14
15314;BME280;7757;52.626;4.746;2023-05-11T03:21:28;101338.88;;;18.94;61.33
15314;BME280;7757;52.626;4.746;2023-05-11T03:24:15;101343.47;;;18.94;61.41
15314;BME280;7757;52.626;4.746;2023-05-11T03:27:01;101343.91;;;18.91;61.59
15314;BME280;7757;52.626;4.746;2023-05-11T03:29:57;101349.94;;;18.93;61.46
15314;BME280;7757;52.626;4.746;2023-05-11T03:32:44;101341.81;;;18.93;61.39
15314;BME280;7757;52.626;4.746;2023-05-11T03:35:35;101337.47;;;18.92;61.36
15314;BME280;7757;52.626;4.746;2023-05-11T03:38:22;101340.38;;;18.90;61.52
15314;BME280;7757;52.626;4.746;2023-05-11T03:41:08;101336.84;;;18.90;61.23
15314;BME280;7757;52.626;4.746;2023-05-11T03:43:59;101334.13;;;18.90;61.18
15314;BME280;7757;52.626;4.746;2023-05-11T03:46:46;101335.41;;;18.87;61.37
15314;BME280;7757;52.626;4.746;2023-05-11T03:49:35;101324.81;;;18.86;61.14
15314;BME280;7757;52.626;4.746;2023-05-11T03:52:23;101335.66;;;18.86;61.44
15314;BME280;7757;52.626;4.746;2023-05-11T03:55:15;101327.53;;;18.86;61.62
15314;BME280;7757;52.626;4.746;2023-05-11T03:58:01;101335.66;;;18.86;61.54
15314;BME280;7757;52.626;4.746;2023-05-11T04:00:49;101331.06;;;18.86;61.23
15314;BME280;7757;52.626;4.746;2023-05-11T04:03:47;101328.56;;;18.85;61.29
15314;BME280;7757;52.626;4.746;2023-05-11T04:06:33;101324.19;;;18.84;61.59
15314;BME280;7757;52.626;4.746;2023-05-11T04:09:21;101329.41;;;18.85;61.21
15314;BME280;7757;52.626;4.746;2023-05-11T04:12:06;101333.84;;;18.80;61.63
15314;BME280;7757;52.626;4.746;2023-05-11T04:14:51;101334.00;;;18.85;61.32
15314;BME280;7757;52.626;4.746;2023-05-11T04:17:36;101328.34;;;18.86;61.50
15314;BME280;7757;52.626;4.746;2023-05-11T04:20:23;101326.69;;;18.85;61.47
15314;BME280;7757;52.626;4.746;2023-05-11T04:23:09;101327.06;;;18.89;61.05
15314;BME280;7757;52.626;4.746;2023-05-11T04:25:54;101326.38;;;18.93;61.28
15314;BME280;7757;52.626;4.746;2023-05-11T04:28:40;101328.03;;;18.94;61.16
15314;BME280;7757;52.626;4.746;2023-05-11T04:31:25;101328.25;;;18.93;60.92
15314;BME280;7757;52.626;4.746;2023-05-11T04:34:11;101327.66;;;18.91;60.96
15314;BME280;7757;52.626;4.746;2023-05-11T04:36:58;101338.50;;;18.91;61.18
15314;BME280;7757;52.626;4.746;2023-05-11T04:39:43;101334.50;;;18.93;61.13
15314;BME280;7757;52.626;4.746;2023-05-11T04:42:31;101339.34;;;18.91;61.11
15314;BME280;7757;52.626;4.746;2023-05-11T04:45:17;101337.00;;;18.95;61.31
15314;BME280;7757;52.626;4.746;2023-05-11T04:48:02;101335.91;;;18.96;60.94
15314;BME280;7757;52.626;4.746;2023-05-11T04:50:48;101328.25;;;18.93;61.09
15314;BME280;7757;52.626;4.746;2023-05-11T04:53:35;101343.84;;;18.98;61.39
15314;BME280;7757;52.626;4.746;2023-05-11T04:56:20;101342.75;;;18.99;60.95
15314;BME280;7757;52.626;4.746;2023-05-11T04:59:06;101341.34;;;18.96;61.16
15314;BME280;7757;52.626;4.746;2023-05-11T05:01:51;101344.75;;;18.91;61.21
15314;BME280;7757;52.626;4.746;2023-05-11T05:04:36;101352.44;;;18.94;60.99
15314;BME280;7757;52.626;4.746;2023-05-11T05:07:22;101354.91;;;18.96;60.94
15314;BME280;7757;52.626;4.746;2023-05-11T05:10:10;101364.25;;;19.00;61.03
15314;BME280;7757;52.626;4.746;2023-05-11T05:12:59;101361.28;;;19.02;60.72
15314;BME280;7757;52.626;4.746;2023-05-11T05:15:44;101359.03;;;18.99;60.55
15314;BME280;7757;52.626;4.746;2023-05-11T05:18:35;101368.25;;;18.98;61.07
15314;BME280;7757;52.626;4.746;2023-05-11T05:21:21;101366.94;;;19.00;61.09
15314;BME280;7757;52.626;4.746;2023-05-11T05:24:08;101377.34;;;19.03;60.82
15314;BME280;7757;52.626;4.746;2023-05-11T05:26:56;101374.50;;;18.98;61.06
15314;BME280;7757;52.626;4.746;2023-05-11T05:29:41;101370.19;;;18.90;60.74
15314;BME280;7757;52.626;4.746;2023-05-11T05:32:26;101378.00;;;18.99;60.95
15314;BME280;7757;52.626;4.746;2023-05-11T05:35:12;101390.72;;;19.16;60.69
15314;BME280;7757;52.626;4.746;2023-05-11T05:37:57;101388.88;;;19.28;60.18
15314;BME280;7757;52.626;4.746;2023-05-11T05:40:45;101389.00;;;19.22;60.22
15314;BME280;7757;52.626;4.746;2023-05-11T05:43:32;101393.53;;;19.10;60.59
15314;BME280;7757;52.626;4.746;2023-05-11T05:46:18;101386.00;;;19.12;60.61
15314;BME280;7757;52.626;4.746;2023-05-11T05:49:06;101381.91;;;19.21;60.27
15314;BME280;7757;52.626;4.746;2023-05-11T05:51:52;101387.19;;;19.16;60.35
15314;BME280;7757;52.626;4.746;2023-05-11T05:54:43;101388.41;;;19.49;59.85
15314;BME280;7757;52.626;4.746;2023-05-11T05:57:28;101387.41;;;20.27;57.22
15314;BME280;7757;52.626;4.746;2023-05-11T06:00:16;101390.72;;;19.76;58.58
15314;BME280;7757;52.626;4.746;2023-05-11T06:03:04;101393.53;;;19.69;58.56
15314;BME280;7757;52.626;4.746;2023-05-11T06:05:49;101402.47;;;19.58;58.79
15314;BME280;7757;52.626;4.746;2023-05-11T06:08:35;101404.09;;;19.47;59.41
15314;BME280;7757;52.626;4.746;2023-05-11T06:11:20;101400.09;;;19.32;60.34
15314;BME280;7757;52.626;4.746;2023-05-11T06:14:08;101404.31;;;19.28;59.65
15314;BME280;7757;52.626;4.746;2023-05-11T06:16:55;101401.81;;;19.15;60.23
15314;BME280;7757;52.626;4.746;2023-05-11T06:19:40;101412.16;;;19.36;59.83
15314;BME280;7757;52.626;4.746;2023-05-11T06:22:26;101410.00;;;19.86;58.55
15314;BME280;7757;52.626;4.746;2023-05-11T06:25:17;101405.06;;;20.76;55.69
15314;BME280;7757;52.626;4.746;2023-05-11T06:28:03;101413.25;;;21.27;54.97
15314;BME280;7757;52.626;4.746;2023-05-11T06:30:48;101410.25;;;21.40;54.25
15314;BME280;7757;52.626;4.746;2023-05-11T06:33:35;101412.41;;;21.27;55.04
15314;BME280;7757;52.626;4.746;2023-05-11T06:36:20;101410.38;;;20.82;55.27
15314;BME280;7757;52.626;4.746;2023-05-11T06:39:08;101405.72;;;20.54;56.27
15314;BME280;7757;52.626;4.746;2023-05-11T06:41:53;101408.75;;;20.46;56.76
15314;BME280;7757;52.626;4.746;2023-05-11T06:44:38;101414.56;;;20.50;56.75
15314;BME280;7757;52.626;4.746;2023-05-11T06:47:24;101410.06;;;20.55;56.10
15314;BME280;7757;52.626;4.746;2023-05-11T06:50:11;101424.94;;;20.53;56.25
15314;BME280;7757;52.626;4.746;2023-05-11T06:52:56;101427.78;;;20.35;56.62
15314;BME280;7757;52.626;4.746;2023-05-11T06:55:42;101429.41;;;20.13;56.95
15314;BME280;7757;52.626;4.746;2023-05-11T06:58:27;101430.91;;;20.09;57.16
15314;BME280;7757;52.626;4.746;2023-05-11T07:01:12;101433.16;;;20.12;57.13
15314;BME280;7757;52.626;4.746;2023-05-11T07:03:58;101435.25;;;20.28;56.57
15314;BME280;7757;52.626;4.746;2023-05-11T07:06:45;101439.59;;;20.40;56.44
15314;BME280;7757;52.626;4.746;2023-05-11T07:09:30;101438.66;;;20.46;56.06
15314;BME280;7757;52.626;4.746;2023-05-11T07:12:16;101428.88;;;20.34;56.77
15314;BME280;7757;52.626;4.746;2023-05-11T07:15:01;101435.94;;;20.35;56.53
15314;BME280;7757;52.626;4.746;2023-05-11T07:17:46;101434.53;;;20.44;56.44
15314;BME280;7757;52.626;4.746;2023-05-11T07:20:32;101423.91;;;20.54;55.95
15314;BME280;7757;52.626;4.746;2023-05-11T07:23:21;101431.78;;;20.67;55.72
15314;BME280;7757;52.626;4.746;2023-05-11T07:26:06;101432.16;;;20.71;55.88
15314;BME280;7757;52.626;4.746;2023-05-11T07:28:52;101426.72;;;20.71;55.67
15314;BME280;7757;52.626;4.746;2023-05-11T07:31:37;101429.06;;;20.79;54.64
15314;BME280;7757;52.626;4.746;2023-05-11T07:34:23;101433.16;;;21.04;54.64
15314;BME280;7757;52.626;4.746;2023-05-11T07:37:08;101432.81;;;21.01;54.67
15314;BME280;7757;52.626;4.746;2023-05-11T07:39:56;101432.91;;;21.06;54.43
15314;BME280;7757;52.626;4.746;2023-05-11T07:42:41;101426.19;;;21.08;54.44
15314;BME280;7757;52.626;4.746;2023-05-11T07:45:27;101431.03;;;21.18;54.14
15314;BME280;7757;52.626;4.746;2023-05-11T07:48:12;101427.91;;;21.26;53.76
15314;BME280;7757;52.626;4.746;2023-05-11T07:51:01;101419.69;;;21.09;54.64
15314;BME280;7757;52.626;4.746;2023-05-11T07:53:46;101428.69;;;21.10;54.02
15314;BME280;7757;52.626;4.746;2023-05-11T07:56:33;101423.34;;;21.15;54.14
15314;BME280;7757;52.626;4.746;2023-05-11T07:59:18;101429.84;;;21.14;54.20
15314;BME280;7757;52.626;4.746;2023-05-11T08:02:05;101435.53;;;21.01;54.69
15314;BME280;7757;52.626;4.746;2023-05-11T08:04:51;101435.78;;;20.88;55.11
15314;BME280;7757;52.626;4.746;2023-05-11T08:07:37;101442.19;;;20.82;54.67
15314;BME280;7757;52.626;4.746;2023-05-11T08:10:22;101442.91;;;20.77;55.31
15314;BME280;7757;52.626;4.746;2023-05-11T08:13:09;101443.84;;;20.71;54.85
15314;BME280;7757;52.626;4.746;2023-05-11T08:15:54;101441.25;;;20.65;54.96
15314;BME280;7757;52.626;4.746;2023-05-11T08:18:40;101449.28;;;20.59;55.20
15314;BME280;7757;52.626;4.746;2023-05-11T08:21:26;101446.47;;;20.66;55.45
15314;BME280;7757;52.626;4.746;2023-05-11T08:24:11;101450.13;;;20.72;55.18
15314;BME280;7757;52.626;4.746;2023-05-11T08:26:57;101445.72;;;20.82;54.98
15314;BME280;7757;52.626;4.746;2023-05-11T08:29:44;101447.38;;;20.83;54.63
15314;BME280;7757;52.626;4.746;2023-05-11T08:32:29;101442.19;;;20.82;54.60
15314;BME280;7757;52.626;4.746;2023-05-11T08:35:15;101450.47;;;20.87;55.07
15314;BME280;7757;52.626;4.746;2023-05-11T08:38:00;101443.47;;;20.91;54.92
15314;BME280;7757;52.626;4.746;2023-05-11T08:40:46;101444.09;;;20.81;54.82
15314;BME280;7757;52.626;4.746;2023-05-11T08:43:33;101453.41;;;20.85;54.30
15314;BME280;7757;52.626;4.746;2023-05-11T08:46:23;101456.34;;;20.95;54.36
15314;BME280;7757;52.626;4.746;2023-05-11T08:49:09;101460.09;;;21.06;54.23
15314;BME280;7757;52.626;4.746;2023-05-11T08:51:56;101460.84;;;21.01;54.31
15314;BME280;7757;52.626;4.746;2023-05-11T08:54:41;101448.06;;;20.90;54.20
15314;BME280;7757;52.626;4.746;2023-05-11T08:57:33;101458.47;;;20.93;54.79
15314;BME280;7757;52.626;4.746;2023-05-11T09:00:19;101466.06;;;20.80;54.58
15314;BME280;7757;52.626;4.746;2023-05-11T09:03:08;101461.81;;;20.72;55.13
15314;BME280;7757;52.626;4.746;2023-05-11T09:05:53;101460.16;;;20.71;55.53
15314;BME280;7757;52.626;4.746;2023-05-11T09:08:38;101459.78;;;20.79;55.30
15314;BME280;7757;52.626;4.746;2023-05-11T09:11:24;101456.63;;;20.71;55.08
15314;BME280;7757;52.626;4.746;2023-05-11T09:14:11;101468.22;;;20.66;55.80
15314;BME280;7757;52.626;4.746;2023-05-11T09:16:56;101459.81;;;20.68;55.65
15314;BME280;7757;52.626;4.746;2023-05-11T09:20:00;101471.03;;;20.71;55.15
15314;BME280;7757;52.626;4.746;2023-05-11T09:22:47;101467.25;;;20.72;55.50
15314;BME280;7757;52.626;4.746;2023-05-11T09:25:33;101465.03;;;20.69;55.20
15314;BME280;7757;52.626;4.746;2023-05-11T09:28:23;101463.25;;;20.63;55.65
15314;BME280;7757;52.626;4.746;2023-05-11T09:31:09;101468.44;;;20.65;55.45
15314;BME280;7757;52.626;4.746;2023-05-11T09:34:07;101455.69;;;20.65;55.51
15314;BME280;7757;52.626;4.746;2023-05-11T09:36:55;101459.59;;;20.69;55.38
15314;BME280;7757;52.626;4.746;2023-05-11T09:39:40;101451.53;;;20.74;55.04
15314;BME280;7757;52.626;4.746;2023-05-11T09:42:26;101451.25;;;20.87;54.62
15314;BME280;7757;52.626;4.746;2023-05-11T09:45:11;101458.25;;;20.95;54.38
15314;BME280;7757;52.626;4.746;2023-05-11T09:48:00;101454.94;;;20.93;54.79
15314;BME280;7757;52.626;4.746;2023-05-11T09:51:04;101463.34;;;20.91;54.58
15314;BME280;7757;52.626;4.746;2023-05-11T09:53:54;101466.41;;;20.95;54.97
15314;BME280;7757;52.626;4.746;2023-05-11T09:56:48;101464.75;;;20.94;54.75
15314;BME280;7757;52.626;4.746;2023-05-11T09:59:38;101460.38;;;20.93;54.89
15314;BME280;7757;52.626;4.746;2023-05-11T10:02:24;101459.19;;;20.89;55.24
15314;BME280;7757;52.626;4.746;2023-05-11T10:05:11;101457.81;;;20.75;55.05
15314;BME280;7757;52.626;4.746;2023-05-11T10:07:57;101463.25;;;20.63;55.72
15314;BME280;7757;52.626;4.746;2023-05-11T10:10:47;101465.59;;;20.36;56.00
15314;BME280;7757;52.626;4.746;2023-05-11T10:13:32;101464.88;;;20.29;56.55
15314;BME280;7757;52.626;4.746;2023-05-11T10:16:19;101460.50;;;20.28;56.93
15314;BME280;7757;52.626;4.746;2023-05-11T10:19:04;101468.88;;;20.27;56.45
15314;BME280;7757;52.626;4.746;2023-05-11T10:21:50;101467.06;;;20.21;57.07
15314;BME280;7757;52.626;4.746;2023-05-11T10:24:37;101460.22;;;20.18;56.44
15314;BME280;7757;52.626;4.746;2023-05-11T10:27:26;101451.81;;;20.20;57.00
15314;BME280;7757;52.626;4.746;2023-05-11T10:30:12;101460.75;;;20.27;56.87
15314;BME280;7757;52.626;4.746;2023-05-11T10:32:59;101467.44;;;20.24;56.68
15314;BME280;7757;52.626;4.746;2023-05-11T10:35:45;101458.31;;;20.07;58.51
15314;BME280;7757;52.626;4.746;2023-05-11T10:38:30;101471.63;;;19.97;58.38
15314;BME280;7757;52.626;4.746;2023-05-11T10:41:26;101472.59;;;20.14;57.54
15314;BME280;7757;52.626;4.746;2023-05-11T10:44:32;101468.00;;;20.15;57.26
15314;BME280;7757;52.626;4.746;2023-05-11T10:47:40;101476.63;;;20.12;57.84
15314;BME280;7757;52.626;4.746;2023-05-11T10:50:43;101471.56;;;20.15;57.23
15314;BME280;7757;52.626;4.746;2023-05-11T10:53:45;101475.09;;;20.16;56.77
15314;BME280;7757;52.626;4.746;2023-05-11T10:56:48;101473.22;;;20.16;57.14
15314;BME280;7757;52.626;4.746;2023-05-11T10:59:53;101480.63;;;20.09;57.44
15314;BME280;7757;52.626;4.746;2023-05-11T11:02:52;101487.56;;;19.93;59.09
15314;BME280;7757;52.626;4.746;2023-05-11T11:05:38;101487.72;;;19.69;60.19
15314;BME280;7757;52.626;4.746;2023-05-11T11:08:24;101482.00;;;19.88;59.06
15314;BME280;7757;52.626;4.746;2023-05-11T11:11:28;101481.63;;;19.85;59.38
15314;BME280;7757;52.626;4.746;2023-05-11T11:14:14;101488.16;;;19.95;58.56
15314;BME280;7757;52.626;4.746;2023-05-11T11:17:22;101481.06;;;19.94;58.67
15314;BME280;7757;52.626;4.746;2023-05-11T11:20:09;101488.88;;;20.02;59.04
15314;BME280;7757;52.626;4.746;2023-05-11T11:26:48;101496.56;;;20.05;57.66
15314;BME280;7757;52.626;4.746;2023-05-11T11:29:35;101496.56;;;20.05;57.66
15314;BME280;7757;52.626;4.746;2023-05-11T11:32:24;101475.75;;;19.99;57.23
15314;BME280;7757;52.626;4.746;2023-05-11T11:38:55;101492.75;;;19.95;58.36
15314;BME280;7757;52.626;4.746;2023-05-11T11:41:42;101493.34;;;19.97;58.51
15314;BME280;7757;52.626;4.746;2023-05-11T11:44:28;101487.13;;;20.08;57.82
15314;BME280;7757;52.626;4.746;2023-05-11T11:47:15;101500.44;;;19.98;58.64
15314;BME280;7757;52.626;4.746;2023-05-11T11:50:10;101488.34;;;19.82;59.49
15314;BME280;7757;52.626;4.746;2023-05-11T11:52:56;101495.03;;;19.68;60.23
15314;BME280;7757;52.626;4.746;2023-05-11T11:55:46;101500.81;;;19.42;61.01
15314;BME280;7757;52.626;4.746;2023-05-11T11:59:00;101498.16;;;19.83;59.06
15314;BME280;7757;52.626;4.746;2023-05-11T12:01:50;101497.00;;;19.91;59.01
15314;BME280;7757;52.626;4.746;2023-05-11T12:04:45;101501.00;;;19.88;58.79
15314;BME280;7757;52.626;4.746;2023-05-11T12:07:34;101492.59;;;19.90;59.22
15314;BME280;7757;52.626;4.746;2023-05-11T12:10:24;101495.22;;;19.96;60.24
15314;BME280;7757;52.626;4.746;2023-05-11T12:13:10;101479.78;;;19.67;61.21
15314;BME280;7757;52.626;4.746;2023-05-11T12:16:06;101488.50;;;19.99;60.20
15314;BME280;7757;52.626;4.746;2023-05-11T12:18:55;101482.25;;;19.87;60.13
15314;BME280;7757;52.626;4.746;2023-05-11T12:21:43;101495.47;;;19.95;60.39
15314;BME280;7757;52.626;4.746;2023-05-11T12:24:29;101480.13;;;19.59;62.43
15314;BME280;7757;52.626;4.746;2023-05-11T12:27:15;101486.50;;;19.94;60.03
15314;BME280;7757;52.626;4.746;2023-05-11T12:30:01;101489.56;;;19.86;60.68
15314;BME280;7757;52.626;4.746;2023-05-11T12:32:47;101491.69;;;19.96;60.66
15314;BME280;7757;52.626;4.746;2023-05-11T12:35:33;101490.53;;;20.03;60.00
15314;BME280;7757;52.626;4.746;2023-05-11T12:38:19;101494.31;;;20.02;59.59
15314;BME280;7757;52.626;4.746;2023-05-11T12:41:04;101487.94;;;20.09;59.09
15314;BME280;7757;52.626;4.746;2023-05-11T12:43:51;101489.38;;;20.11;59.07
15314;BME280;7757;52.626;4.746;2023-05-11T12:46:36;101490.78;;;20.14;59.01
15314;BME280;7757;52.626;4.746;2023-05-11T12:49:23;101489.97;;;20.13;58.73
15314;BME280;7757;52.626;4.746;2023-05-11T12:52:12;101482.78;;;20.07;58.80
15314;BME280;7757;52.626;4.746;2023-05-11T12:54:57;101481.94;;;20.07;59.29
15314;BME280;7757;52.626;4.746;2023-05-11T12:57:43;101467.72;;;19.93;59.33
15314;BME280;7757;52.626;4.746;2023-05-11T13:00:29;101487.47;;;20.00;59.63
15314;BME280;7757;52.626;4.746;2023-05-11T13:03:20;101490.00;;;19.83;60.74
15314;BME280;7757;52.626;4.746;2023-05-11T13:06:06;101483.03;;;19.58;63.45
15314;BME280;7757;52.626;4.746;2023-05-11T13:08:53;101481.03;;;19.83;60.87
15314;BME280;7757;52.626;4.746;2023-05-11T13:11:39;101479.78;;;19.97;59.85
15314;BME280;7757;52.626;4.746;2023-05-11T13:14:24;101479.41;;;19.64;62.49
15314;BME280;7757;52.626;4.746;2023-05-11T13:17:10;101481.25;;;19.81;62.23
15314;BME280;7757;52.626;4.746;2023-05-11T13:19:55;101474.72;;;20.00;60.25
15314;BME280;7757;52.626;4.746;2023-05-11T13:22:41;101473.78;;;20.07;59.52
15314;BME280;7757;52.626;4.746;2023-05-11T13:25:27;101466.22;;;20.09;59.53
15314;BME280;7757;52.626;4.746;2023-05-11T13:28:13;101469.50;;;19.99;59.45
15314;BME280;7757;52.626;4.746;2023-05-11T13:31:00;101470.88;;;19.90;60.45
15314;BME280;7757;52.626;4.746;2023-05-11T13:33:45;101473.25;;;19.86;60.16
15314;BME280;7757;52.626;4.746;2023-05-11T13:36:30;101476.19;;;19.85;60.67
15314;BME280;7757;52.626;4.746;2023-05-11T13:39:16;101464.16;;;19.81;61.07
15314;BME280;7757;52.626;4.746;2023-05-11T13:42:03;101468.53;;;19.93;60.00
15314;BME280;7757;52.626;4.746;2023-05-11T13:44:49;101471.63;;;19.97;61.03
15314;BME280;7757;52.626;4.746;2023-05-11T13:47:37;101475.75;;;19.99;60.70
15314;BME280;7757;52.626;4.746;2023-05-11T13:50:25;101468.09;;;19.96;62.27
15314;BME280;7757;52.626;4.746;2023-05-11T13:53:10;101463.00;;;20.30;61.66
15314;BME280;7757;52.626;4.746;2023-05-11T13:55:56;101473.19;;;20.57;60.02
15314;BME280;7757;52.626;4.746;2023-05-11T13:58:46;101460.63;;;20.33;59.79
15314;BME280;7757;52.626;4.746;2023-05-11T14:01:41;101472.66;;;20.26;59.65
15314;BME280;7757;52.626;4.746;2023-05-11T14:04:32;101469.72;;;20.27;59.34
15314;BME280;7757;52.626;4.746;2023-05-11T14:07:18;101458.78;;;20.04;60.36
15314;BME280;7757;52.626;4.746;2023-05-11T14:10:04;101460.31;;;20.00;61.12
15314;BME280;7757;52.626;4.746;2023-05-11T14:12:50;101455.38;;;20.09;60.22
15314;BME280;7757;52.626;4.746;2023-05-11T14:15:37;101468.09;;;20.08;59.86
15314;BME280;7757;52.626;4.746;2023-05-11T14:18:22;101464.78;;;19.94;62.13
15314;BME280;7757;52.626;4.746;2023-05-11T14:21:21;101463.84;;;20.00;60.40
15314;BME280;7757;52.626;4.746;2023-05-11T14:24:06;101457.13;;;20.03;59.92
15314;BME280;7757;52.626;4.746;2023-05-11T14:26:52;101461.00;;;19.95;59.86
15314;BME280;7757;52.626;4.746;2023-05-11T14:29:40;101462.06;;;19.94;60.39
15314;BME280;7757;52.626;4.746;2023-05-11T14:32:30;101458.91;;;20.09;59.79
15314;BME280;7757;52.626;4.746;2023-05-11T14:35:17;101452.19;;;20.12;59.38
15314;BME280;7757;52.626;4.746;2023-05-11T14:38:03;101470.38;;;20.23;58.92
15314;BME280;7757;52.626;4.746;2023-05-11T14:40:48;101466.22;;;20.09;59.92
15314;BME280;7757;52.626;4.746;2023-05-11T14:43:33;101467.78;;;20.16;59.35
15314;BME280;7757;52.626;4.746;2023-05-11T14:46:19;101453.00;;;20.00;59.73
15314;BME280;7757;52.626;4.746;2023-05-11T14:49:07;101466.44;;;20.25;59.11
15314;BME280;7757;52.626;4.746;2023-05-11T14:51:52;101464.59;;;20.19;59.35
15314;BME280;7757;52.626;4.746;2023-05-11T14:54:40;101456.06;;;20.04;58.79
15314;BME280;7757;52.626;4.746;2023-05-11T14:57:26;101455.25;;;20.03;59.66
15314;BME280;7757;52.626;4.746;2023-05-11T15:00:15;101463.09;;;19.82;60.36